Time;durP1;ratioP1;P1;durP2;ratioP2;P2;SDS_P1;SDS_P2;PMS_P1;PMS_P2;Temp;Humidity;BMP_temperature;BMP_pressure;BME280_temperature;BME280_humidity;BME280_pressure;Samples;Min_cycle;Max_cycle;Signal;HPM_P1;HPM_P2
2022/07/07 00:01:09;;;;;;;;;;;;;;;12.10;54.79;100941.56;1655227;86;20709;-76
2022/07/07 00:03:34;;;;;;;;;;;;;;;12.09;54.89;100942.55;1655198;86;20268;-76
2022/07/07 00:06:00;;;;;;;;;;;;;;;12.08;54.98;100942.21;1634433;86;21254;-75
2022/07/07 00:08:26;;;;;;;;;;;;;;;12.10;55.06;100943.39;1601373;89;20841;-75
2022/07/07 00:10:52;;;;;;;;;;;;;;;12.10;55.15;100940.72;1612185;89;20318;-75
2022/07/07 00:13:18;;;;;;;;;;;;;;;12.10;55.23;100934.88;1612077;89;20167;-75
2022/07/07 00:15:48;;;;;;;;;;;;;;;12.11;55.33;100931.67;1612292;89;20176;-75
2022/07/07 00:18:12;;;;;;;;;;;;;;;12.12;55.43;100932.02;1612072;87;21116;-75
2022/07/07 00:20:38;;;;;;;;;;;;;;;12.12;55.50;100930.19;1611796;89;20167;-75
2022/07/07 00:23:04;;;;;;;;;;;;;;;12.15;55.61;100930.34;1611959;89;20215;-75
2022/07/07 00:25:30;;;;;;;;;;;;;;;12.14;55.67;100928.17;1612165;89;20445;-75
2022/07/07 00:27:56;;;;;;;;;;;;;;;12.13;55.76;100926.52;1612308;89;20204;-75
2022/07/07 00:30:21;;;;;;;;;;;;;;;12.13;55.81;100929.19;1612072;88;21202;-75
2022/07/07 00:32:47;;;;;;;;;;;;;;;12.15;55.89;100926.33;1612018;89;20326;-75
2022/07/07 00:35:13;;;;;;;;;;;;;;;12.15;55.93;100925.84;1611879;89;20251;-75
2022/07/07 00:37:39;;;;;;;;;;;;;;;12.16;56.01;100934.20;1612229;89;20211;-75
2022/07/07 00:40:06;;;;;;;;;;;;;;;12.15;56.06;100925.84;1605510;89;20177;-75
2022/07/07 00:42:31;;;;;;;;;;;;;;;12.13;56.16;100922.51;1601982;88;21976;-75
2022/07/07 00:44:57;;;;;;;;;;;;;;;12.11;56.22;100924.50;1600817;88;20374;-75
2022/07/07 00:47:23;;;;;;;;;;;;;;;12.10;56.28;100922.84;1601459;89;20775;-75
2022/07/07 00:49:49;;;;;;;;;;;;;;;12.09;56.35;100923.84;1660577;86;20185;-75
2022/07/07 00:52:14;;;;;;;;;;;;;;;12.10;56.43;100925.52;1660537;86;20178;-75
2022/07/07 00:54:43;;;;;;;;;;;;;;;12.10;56.50;100918.84;1660648;86;21139;-75
2022/07/07 00:57:09;;;;;;;;;;;;;;;12.13;56.55;100917.16;1659147;85;20168;-75
2022/07/07 00:59:35;;;;;;;;;;;;;;;12.14;56.62;100916.13;1660627;86;20234;-75
2022/07/07 01:02:01;;;;;;;;;;;;;;;12.18;56.68;100913.47;1660565;86;20166;-75
2022/07/07 01:04:27;;;;;;;;;;;;;;;12.21;56.73;100914.46;1660483;86;20222;-75
2022/07/07 01:06:52;;;;;;;;;;;;;;;12.28;56.77;100914.66;1660488;86;21210;-75
2022/07/07 01:09:18;;;;;;;;;;;;;;;12.35;56.78;100912.45;1660274;86;20778;-75
2022/07/07 01:11:48;;;;;;;;;;;;;;;12.44;56.77;100911.45;1660483;86;20182;-75
2022/07/07 01:14:14;;;;;;;;;;;;;;;12.55;56.76;100913.44;1660026;86;20459;-75
2022/07/07 01:16:40;;;;;;;;;;;;;;;12.68;56.72;100905.70;1660503;86;20176;-75
2022/07/07 01:19:06;;;;;;;;;;;;;;;12.80;56.67;100901.67;1660434;86;21035;-75
2022/07/07 01:21:34;;;;;;;;;;;;;;;12.89;56.59;100900.63;1660130;86;20301;-75
2022/07/07 01:23:59;;;;;;;;;;;;;;;12.94;56.57;100890.25;1660506;86;20151;-75
2022/07/07 01:26:26;;;;;;;;;;;;;;;12.99;56.53;100885.20;1660415;86;20305;-75
2022/07/07 01:28:52;;;;;;;;;;;;;;;13.02;56.50;100882.16;1660562;86;20483;-75
2022/07/07 01:31:18;;;;;;;;;;;;;;;13.08;56.47;100884.67;1659917;86;21800;-75
2022/07/07 01:33:44;;;;;;;;;;;;;;;13.10;56.44;100884.02;1660443;85;20289;-75
2022/07/07 01:36:13;;;;;;;;;;;;;;;13.13;56.41;100886.34;1627417;86;20210;-75
2022/07/07 01:38:38;;;;;;;;;;;;;;;13.14;56.43;100872.78;1608974;88;20486;-75
2022/07/07 01:41:04;;;;;;;;;;;;;;;13.15;56.42;100874.47;1615543;88;20267;-75
2022/07/07 01:43:30;;;;;;;;;;;;;;;13.17;56.42;100873.77;1660435;86;21037;-75
2022/07/07 01:45:56;;;;;;;;;;;;;;;13.17;56.42;100869.75;1660258;86;20797;-75
2022/07/07 01:48:23;;;;;;;;;;;;;;;13.19;56.42;100869.59;1660606;86;20325;-75
2022/07/07 01:50:48;;;;;;;;;;;;;;;13.20;56.44;100869.40;1660540;86;20159;-75
2022/07/07 01:53:15;;;;;;;;;;;;;;;13.20;56.47;100872.58;1660702;86;20174;-75
2022/07/07 01:55:41;;;;;;;;;;;;;;;13.22;56.49;100862.04;1660536;86;21091;-75
2022/07/07 01:58:07;;;;;;;;;;;;;;;13.22;56.50;100864.72;1660428;86;20471;-75
2022/07/07 02:00:32;;;;;;;;;;;;;;;13.24;56.49;100867.20;1658980;86;20233;-75
2022/07/07 02:02:58;;;;;;;;;;;;;;;13.23;56.47;100862.34;1660469;86;20221;-75
2022/07/07 02:05:24;;;;;;;;;;;;;;;13.22;56.45;100864.72;1660482;86;20190;-75
2022/07/07 02:07:50;;;;;;;;;;;;;;;13.20;56.47;100865.38;1660596;86;21834;-75
2022/07/07 02:11:12;;;;;;;;;;;;;;;13.18;56.45;100866.58;1660240;86;20237;-74
2022/07/07 02:12:44;;;;;;;;;;;;;;;13.14;56.46;100860.73;1659776;84;20165;-75
2022/07/07 02:15:10;;;;;;;;;;;;;;;13.10;56.45;100862.09;1650311;86;20196;-75
2022/07/07 02:17:36;;;;;;;;;;;;;;;13.05;56.48;100859.09;1611910;88;20177;-75
2022/07/07 02:20:01;;;;;;;;;;;;;;;13.02;56.47;100861.58;1628214;87;21179;-75
2022/07/07 02:22:27;;;;;;;;;;;;;;;12.97;56.47;100860.45;1627886;88;20214;-75
2022/07/07 02:24:53;;;;;;;;;;;;;;;12.91;56.53;100859.81;1628330;88;20219;-75
2022/07/07 02:27:19;;;;;;;;;;;;;;;12.84;56.57;100860.98;1628154;88;20898;-75
2022/07/07 02:29:44;;;;;;;;;;;;;;;12.78;56.61;100855.50;1660632;86;20301;-74
2022/07/07 02:32:10;;;;;;;;;;;;;;;12.71;56.66;100857.19;1660335;86;21100;-75
2022/07/07 02:34:36;;;;;;;;;;;;;;;12.64;56.73;100856.21;1660498;86;20597;-75
2022/07/07 02:37:02;;;;;;;;;;;;;;;12.57;56.78;100848.54;1660568;86;20789;-75
2022/07/07 02:39:28;;;;;;;;;;;;;;;12.51;56.80;100846.91;1621911;87;20260;-75
2022/07/07 02:41:54;;;;;;;;;;;;;;;12.48;56.83;100845.91;1612541;88;20791;-75
2022/07/07 02:44:19;;;;;;;;;;;;;;;12.44;56.86;100850.42;1609784;88;21194;-75
2022/07/07 02:46:45;;;;;;;;;;;;;;;12.41;56.90;100844.08;1621859;87;20202;-75
2022/07/07 02:49:11;;;;;;;;;;;;;;;12.37;56.94;100848.10;1619855;87;20211;-75
2022/07/07 02:51:37;;;;;;;;;;;;;;;12.33;57.01;100848.95;1620908;88;20465;-75
2022/07/07 02:54:03;;;;;;;;;;;;;;;12.30;57.05;100846.61;1620337;87;20242;-75
2022/07/07 02:56:29;;;;;;;;;;;;;;;12.29;57.10;100847.61;1620176;88;21182;-75
2022/07/07 02:58:54;;;;;;;;;;;;;;;12.27;57.18;100853.64;1624409;87;20763;-75
2022/07/07 03:01:20;;;;;;;;;;;;;;;12.28;57.23;100851.28;1621165;87;20214;-75
2022/07/07 03:03:46;;;;;;;;;;;;;;;12.29;57.29;100847.61;1620965;87;20194;-75
2022/07/07 03:06:12;;;;;;;;;;;;;;;12.35;57.32;100844.24;1622575;87;20774;-75
2022/07/07 03:08:38;;;;;;;;;;;;;;;12.40;57.32;100843.24;1619422;87;21183;-75
2022/07/07 03:11:04;;;;;;;;;;;;;;;12.48;57.35;100852.59;1630491;88;20503;-75
2022/07/07 03:13:30;;;;;;;;;;;;;;;12.55;57.38;100846.55;1628482;88;20238;-75
2022/07/07 03:15:57;;;;;;;;;;;;;;;12.62;57.39;100847.53;1628012;88;20200;-75
2022/07/07 03:18:23;;;;;;;;;;;;;;;12.66;57.40;100843.52;1627827;88;20401;-75
2022/07/07 03:20:49;;;;;;;;;;;;;;;12.71;57.42;100846.48;1628063;88;21771;-74
2022/07/07 03:23:14;;;;;;;;;;;;;;;12.76;57.45;100847.66;1660362;86;20193;-75
2022/07/07 03:25:40;;;;;;;;;;;;;;;12.82;57.47;100844.78;1660680;86;20240;-75
2022/07/07 03:28:06;;;;;;;;;;;;;;;12.88;57.46;100841.40;1623344;86;20178;-75
2022/07/07 03:30:32;;;;;;;;;;;;;;;12.94;57.48;100839.39;1660607;86;20873;-75
2022/07/07 03:32:58;;;;;;;;;;;;;;;13.01;57.44;100827.81;1660394;86;21908;-75
2022/07/07 03:35:24;;;;;;;;;;;;;;;13.11;57.42;100831.63;1655081;86;20403;-75
2022/07/07 03:37:50;;;;;;;;;;;;;;;13.21;57.37;100832.24;1653078;85;20236;-75
2022/07/07 03:40:15;;;;;;;;;;;;;;;13.33;57.37;100828.16;1634374;87;20179;-75
2022/07/07 03:42:41;;;;;;;;;;;;;;;13.60;57.35;100824.11;1653024;87;20328;-75
2022/07/07 03:45:08;;;;;;;;;;;;;;;14.02;57.33;100819.56;1652854;87;21052;-75
2022/07/07 03:47:34;;;;;;;;;;;;;;;14.67;57.20;100818.92;1652921;87;20182;-75
2022/07/07 03:50:00;;;;;;;;;;;;;;;15.13;56.84;100825.68;1652899;87;20147;-75
2022/07/07 03:52:26;;;;;;;;;;;;;;;15.28;56.50;100818.42;1631209;87;20180;-75
2022/07/07 03:54:51;;;;;;;;;;;;;;;15.13;56.27;100814.94;1634946;87;20804;-75
2022/07/07 03:57:17;;;;;;;;;;;;;;;14.92;56.21;100814.89;1652974;86;21126;-75
2022/07/07 03:59:43;;;;;;;;;;;;;;;14.75;56.18;100812.09;1652725;87;20188;-75
2022/07/07 04:02:09;;;;;;;;;;;;;;;14.62;56.14;100811.41;1652840;87;20208;-75
2022/07/07 04:04:35;;;;;;;;;;;;;;;14.53;56.12;100807.68;1652863;87;20166;-75
2022/07/07 04:07:01;;;;;;;;;;;;;;;14.46;56.11;100804.38;1652777;87;20220;-75
2022/07/07 04:09:27;;;;;;;;;;;;;;;14.39;56.09;100803.45;1652975;87;21165;-75
2022/07/07 04:11:53;;;;;;;;;;;;;;;14.35;56.06;100808.88;1652525;87;20240;-75
2022/07/07 04:14:19;;;;;;;;;;;;;;;14.31;56.04;100802.69;1652812;87;20239;-75
2022/07/07 04:16:44;;;;;;;;;;;;;;;14.28;56.01;100797.69;1652860;86;20252;-75
2022/07/07 04:19:10;;;;;;;;;;;;;;;14.24;56.01;100791.86;1652477;87;20224;-75
2022/07/07 04:21:36;;;;;;;;;;;;;;;14.26;56.01;100787.13;1652683;86;21237;-75
2022/07/07 04:24:02;;;;;;;;;;;;;;;14.27;55.98;100784.78;1653062;87;20192;-75
2022/07/07 04:26:28;;;;;;;;;;;;;;;14.31;55.99;100787.42;1628163;86;20180;-75
2022/07/07 04:28:54;;;;;;;;;;;;;;;14.35;55.97;100788.76;1628359;87;20248;-75
2022/07/07 04:31:20;;;;;;;;;;;;;;;14.37;55.98;100785.37;1594566;88;20199;-75
2022/07/07 04:33:46;;;;;;;;;;;;;;;14.41;55.99;100785.33;1635704;86;21054;-75
2022/07/07 04:36:14;;;;;;;;;;;;;;;14.46;56.02;100777.53;1636373;87;20179;-75
2022/07/07 04:38:40;;;;;;;;;;;;;;;14.53;55.98;100782.19;1637033;87;20179;-75
2022/07/07 04:41:06;;;;;;;;;;;;;;;14.55;55.97;100778.28;1621709;87;20221;-75
2022/07/07 04:43:31;;;;;;;;;;;;;;;14.61;55.99;100772.16;1638701;87;20229;-76
2022/07/07 04:45:57;;;;;;;;;;;;;;;14.67;55.99;100782.14;1638280;86;21118;-75
2022/07/07 04:48:23;;;;;;;;;;;;;;;14.72;56.00;100776.22;1649337;85;20248;-75
2022/07/07 04:50:49;;;;;;;;;;;;;;;14.76;55.96;100774.83;1634916;87;20269;-75
2022/07/07 04:53:15;;;;;;;;;;;;;;;14.81;55.97;100775.11;1638385;87;20604;-75
2022/07/07 04:55:41;;;;;;;;;;;;;;;14.86;55.94;100773.52;1638483;86;20256;-75
2022/07/07 04:58:07;;;;;;;;;;;;;;;14.94;55.91;100777.95;1638341;86;21275;-75
2022/07/07 05:00:32;;;;;;;;;;;;;;;15.02;55.90;100775.16;1621116;86;20191;-75
2022/07/07 05:02:58;;;;;;;;;;;;;;;15.11;55.87;100772.66;1637418;87;20745;-75
2022/07/07 05:05:24;;;;;;;;;;;;;;;15.22;55.85;100769.48;1638711;87;20249;-76
2022/07/07 05:07:50;;;;;;;;;;;;;;;15.35;55.83;100770.11;1638765;87;20269;-75
2022/07/07 05:10:16;;;;;;;;;;;;;;;15.49;55.77;100777.31;1638393;87;21086;-75
2022/07/07 05:12:42;;;;;;;;;;;;;;;15.64;55.68;100770.52;1638389;87;20616;-75
2022/07/07 05:15:08;;;;;;;;;;;;;;;16.07;55.63;100765.39;1638511;86;20221;-76
2022/07/07 05:17:34;;;;;;;;;;;;;;;16.95;55.52;100764.12;1638439;86;20175;-76
2022/07/07 05:20:00;;;;;;;;;;;;;;;17.85;55.28;100763.64;1638195;87;20173;-76
2022/07/07 05:22:26;;;;;;;;;;;;;;;18.42;54.88;100754.84;1638386;86;21969;-76
2022/07/07 05:24:51;;;;;;;;;;;;;;;18.76;54.43;100756.39;1638096;87;20248;-76
2022/07/07 05:27:17;;;;;;;;;;;;;;;18.65;54.15;100757.58;1638534;86;20288;-76
2022/07/07 05:29:43;;;;;;;;;;;;;;;18.50;53.85;100754.30;1638317;87;20178;-76
2022/07/07 05:32:09;;;;;;;;;;;;;;;18.36;53.64;100759.74;1638318;86;20788;-76
2022/07/07 05:34:35;;;;;;;;;;;;;;;18.59;53.40;100755.73;1638225;87;21297;-77
2022/07/07 05:37:01;;;;;;;;;;;;;;;18.69;53.05;100756.11;1636509;87;20181;-76
2022/07/07 05:39:28;;;;;;;;;;;;;;;18.64;52.80;100755.94;1638816;87;20327;-76
2022/07/07 05:41:54;;;;;;;;;;;;;;;18.57;52.56;100753.78;1638381;87;20199;-77
2022/07/07 05:44:20;;;;;;;;;;;;;;;18.43;52.34;100751.62;1636748;87;20256;-76
2022/07/07 05:46:46;;;;;;;;;;;;;;;18.58;52.26;100744.64;1636650;87;21099;-76
2022/07/07 05:49:12;;;;;;;;;;;;;;;18.76;52.02;100742.05;1636475;86;20240;-76
2022/07/07 05:51:38;;;;;;;;;;;;;;;18.84;51.73;100740.46;1636681;87;20269;-76
2022/07/07 05:54:04;;;;;;;;;;;;;;;18.71;51.48;100740.02;1636616;85;20927;-77
2022/07/07 05:56:29;;;;;;;;;;;;;;;18.51;51.30;100742.48;1636752;87;20178;-77
2022/07/07 05:58:55;;;;;;;;;;;;;;;18.37;51.23;100747.88;1636904;87;21187;-76
2022/07/07 06:01:21;;;;;;;;;;;;;;;18.34;51.15;100742.91;1610059;87;21137;-77
2022/07/07 06:03:47;;;;;;;;;;;;;;;18.32;51.06;100746.35;1636641;87;20233;-76
2022/07/07 06:06:13;;;;;;;;;;;;;;;18.27;50.93;100746.66;1636801;87;20188;-76
2022/07/07 06:08:39;;;;;;;;;;;;;;;18.27;50.93;100746.66;1636701;87;20269;-76
2022/07/07 06:11:05;;;;;;;;;;;;;;;18.27;50.84;100747.49;1636754;87;21704;-77
2022/07/07 06:13:31;;;;;;;;;;;;;;;18.26;50.80;100744.47;1636521;87;20213;-77
2022/07/07 06:15:57;;;;;;;;;;;;;;;18.35;50.63;100738.34;1633445;87;20347;-77
2022/07/07 06:18:23;;;;;;;;;;;;;;;18.52;50.58;100744.12;1628701;87;20167;-77
2022/07/07 06:20:49;;;;;;;;;;;;;;;18.76;50.47;100739.34;1658514;86;20172;-76
2022/07/07 06:23:14;;;;;;;;;;;;;;;18.88;50.30;100733.59;1658458;85;21130;-77
2022/07/07 06:25:40;;;;;;;;;;;;;;;19.09;50.19;100734.61;1652002;86;20223;-77
2022/07/07 06:28:06;;;;;;;;;;;;;;;19.22;49.92;100741.28;1654461;86;20212;-76
2022/07/07 06:30:32;;;;;;;;;;;;;;;19.21;49.78;100746.38;1651700;85;20184;-76
2022/07/07 06:32:58;;;;;;;;;;;;;;;19.31;49.68;100738.64;1660848;85;20264;-76
2022/07/07 06:35:25;;;;;;;;;;;;;;;19.21;49.30;100750.98;1659107;85;21075;-76
2022/07/07 06:37:53;;;;;;;;;;;;;;;19.04;49.00;100750.64;1653691;87;20150;-77
2022/07/07 06:40:20;;;;;;;;;;;;;;;18.80;48.64;100755.45;1653562;87;20466;-76
2022/07/07 06:42:46;;;;;;;;;;;;;;;18.53;48.47;100759.30;1648081;87;20166;-76
2022/07/07 06:45:11;;;;;;;;;;;;;;;18.24;48.45;100752.48;1647684;85;20169;-76
2022/07/07 06:47:38;;;;;;;;;;;;;;;18.18;48.58;100751.98;1647118;87;21183;-76
2022/07/07 06:50:04;;;;;;;;;;;;;;;18.30;48.66;100752.98;1647731;87;20192;-76
2022/07/07 06:52:30;;;;;;;;;;;;;;;18.43;48.71;100748.92;1647703;86;20597;-76
2022/07/07 06:54:56;;;;;;;;;;;;;;;18.54;48.71;100751.52;1647892;87;20169;-76
2022/07/07 06:57:22;;;;;;;;;;;;;;;18.73;48.79;100754.12;1647774;85;20161;-76
2022/07/07 06:59:48;;;;;;;;;;;;;;;18.77;48.72;100747.77;1648018;87;21166;-76
2022/07/07 07:02:13;;;;;;;;;;;;;;;18.74;48.64;100751.74;1647889;85;20234;-76
2022/07/07 07:04:40;;;;;;;;;;;;;;;18.74;48.70;100748.20;1648182;85;20457;-76
2022/07/07 07:07:05;;;;;;;;;;;;;;;18.82;48.71;100750.67;1648575;85;20149;-76
2022/07/07 07:09:31;;;;;;;;;;;;;;;18.84;48.68;100747.22;1648832;86;20227;-76
2022/07/07 07:11:57;;;;;;;;;;;;;;;18.88;48.68;100748.45;1645481;85;22001;-76
2022/07/07 07:14:23;;;;;;;;;;;;;;;18.94;48.68;100747.58;1641772;85;20493;-77
2022/07/07 07:16:49;;;;;;;;;;;;;;;18.96;48.71;100754.42;1651173;86;20176;-76
2022/07/07 07:19:15;;;;;;;;;;;;;;;18.85;48.74;100751.59;1648818;86;20147;-77
2022/07/07 07:21:40;;;;;;;;;;;;;;;18.86;48.83;100750.52;1647790;86;20177;-77
2022/07/07 07:24:06;;;;;;;;;;;;;;;18.92;48.94;100747.81;1648731;86;21108;-77
2022/07/07 07:26:32;;;;;;;;;;;;;;;19.14;48.98;100748.29;1653272;85;20220;-76
2022/07/07 07:28:58;;;;;;;;;;;;;;;19.33;48.96;100743.30;1662716;85;20181;-76
2022/07/07 07:31:24;;;;;;;;;;;;;;;19.41;48.85;100748.48;1648851;85;20597;-76
2022/07/07 07:33:50;;;;;;;;;;;;;;;19.44;48.86;100750.74;1647390;85;20583;-77
2022/07/07 07:36:16;;;;;;;;;;;;;;;19.46;48.91;100747.80;1648332;86;21176;-77
2022/07/07 07:38:43;;;;;;;;;;;;;;;19.74;48.88;100746.02;1648449;85;20216;-77
2022/07/07 07:41:10;;;;;;;;;;;;;;;19.68;48.83;100749.09;1651660;86;20224;-77
2022/07/07 07:43:36;;;;;;;;;;;;;;;19.41;48.77;100747.12;1648342;86;20182;-77
2022/07/07 07:46:02;;;;;;;;;;;;;;;19.14;49.06;100751.00;1648415;86;20185;-77
2022/07/07 07:48:28;;;;;;;;;;;;;;;19.01;49.28;100755.13;1648464;87;21149;-76
2022/07/07 07:50:54;;;;;;;;;;;;;;;18.99;49.60;100754.53;1648032;87;20876;-76
2022/07/07 07:53:20;;;;;;;;;;;;;;;18.92;49.75;100759.98;1648247;87;20252;-77
2022/07/07 07:55:45;;;;;;;;;;;;;;;18.76;49.88;100750.16;1644133;86;20158;-76
2022/07/07 07:58:11;;;;;;;;;;;;;;;18.45;50.08;100755.75;1647594;86;20184;-77
2022/07/07 08:00:37;;;;;;;;;;;;;;;18.43;50.42;100759.20;1639430;86;21768;-76
2022/07/07 08:03:03;;;;;;;;;;;;;;;18.35;50.63;100747.27;1646236;85;20499;-76
2022/07/07 08:05:30;;;;;;;;;;;;;;;18.25;50.92;100760.39;1647828;85;20200;-76
2022/07/07 08:07:55;;;;;;;;;;;;;;;18.27;51.17;100756.94;1648371;85;20497;-77
2022/07/07 08:10:21;;;;;;;;;;;;;;;18.19;51.33;100758.50;1648458;86;20276;-77
2022/07/07 08:12:47;;;;;;;;;;;;;;;18.14;51.63;100761.02;1648375;86;21104;-76
2022/07/07 08:15:14;;;;;;;;;;;;;;;18.00;52.00;100759.38;1648426;87;20139;-76
2022/07/07 08:17:40;;;;;;;;;;;;;;;17.85;52.47;100766.34;1649353;85;20169;-76
2022/07/07 08:20:06;;;;;;;;;;;;;;;17.83;52.87;100766.25;1658904;85;20563;-76
2022/07/07 08:22:32;;;;;;;;;;;;;;;17.85;53.09;100760.11;1607390;86;20178;-76
2022/07/07 08:24:58;;;;;;;;;;;;;;;17.83;53.33;100763.03;1591722;89;21400;-76
2022/07/07 08:27:24;;;;;;;;;;;;;;;18.02;53.50;100753.24;1636398;87;20195;-77
2022/07/07 08:29:50;;;;;;;;;;;;;;;18.14;53.54;100755.63;1643388;86;20277;-76
2022/07/07 08:32:15;;;;;;;;;;;;;;;18.17;53.67;100749.80;1643993;87;20157;-76
2022/07/07 08:34:42;;;;;;;;;;;;;;;18.23;53.69;100751.65;1644123;87;20169;-76
2022/07/07 08:37:08;;;;;;;;;;;;;;;18.30;53.72;100744.88;1640924;86;21711;-76
2022/07/07 08:39:33;;;;;;;;;;;;;;;18.32;53.74;100743.65;1639730;87;20193;-76
2022/07/07 08:41:59;;;;;;;;;;;;;;;18.33;53.68;100735.84;1639631;86;20221;-76
2022/07/07 08:44:25;;;;;;;;;;;;;;;18.46;53.64;100735.81;1631505;87;20200;-77
2022/07/07 08:46:51;;;;;;;;;;;;;;;18.61;53.52;100728.00;1625606;87;20181;-77
2022/07/07 08:49:17;;;;;;;;;;;;;;;18.69;53.47;100735.84;1625721;86;21152;-77
2022/07/07 08:51:44;;;;;;;;;;;;;;;18.67;53.38;100729.84;1625519;86;20154;-77
2022/07/07 08:54:11;;;;;;;;;;;;;;;18.80;53.30;100737.36;1625594;87;20178;-77
2022/07/07 08:56:40;;;;;;;;;;;;;;;18.93;53.15;100721.59;1625586;87;20167;-77
2022/07/07 08:59:07;;;;;;;;;;;;;;;18.84;53.00;100729.66;1625468;87;20230;-77
2022/07/07 09:01:33;;;;;;;;;;;;;;;18.87;52.88;100729.22;1625364;87;21114;-77
2022/07/07 09:03:59;;;;;;;;;;;;;;;19.02;52.83;100731.12;1633964;87;20183;-75
2022/07/07 09:06:25;;;;;;;;;;;;;;;19.13;52.71;100729.08;1629853;86;20170;-77
2022/07/07 09:08:52;;;;;;;;;;;;;;;19.22;52.58;100725.58;1631666;86;20516;-77
2022/07/07 09:11:26;;;;;;;;;;;;;;;19.33;52.50;100726.23;1628340;86;20484;-77
2022/07/07 09:13:58;;;;;;;;;;;;;;;19.35;52.31;100720.90;1627389;86;21104;-77
2022/07/07 09:16:24;;;;;;;;;;;;;;;19.29;51.98;100725.84;1629519;86;20734;-77
2022/07/07 09:18:49;;;;;;;;;;;;;;;19.32;51.75;100722.69;1631285;86;20233;-77
2022/07/07 09:21:30;;;;;;;;;;;;;;;19.40;51.56;100730.55;1633895;86;20733;-77
2022/07/07 09:23:59;;;;;;;;;;;;;;;19.33;51.02;100728.42;1634676;86;20194;-77
2022/07/07 09:26:37;;;;;;;;;;;;;;;19.33;50.67;100718.95;1630139;86;21142;-76
2022/07/07 09:29:06;;;;;;;;;;;;;;;19.41;50.46;100715.19;1619956;87;20188;-77
2022/07/07 09:32:01;;;;;;;;;;;;;;;19.53;50.06;100712.61;1631238;87;20207;-79
2022/07/07 09:34:35;;;;;;;;;;;;;;;19.70;49.86;100711.00;1627652;87;20189;-77
2022/07/07 09:39:50;;;;;;;;;;;;;;;20.00;49.09;100704.34;1613252;88;20870;-77
2022/07/07 09:42:20;;;;;;;;;;;;;;;20.38;48.85;100696.34;1610608;88;20226;-77
2022/07/07 09:44:49;;;;;;;;;;;;;;;20.54;48.34;100694.08;1610340;87;20638;-77
2022/07/07 09:47:15;;;;;;;;;;;;;;;20.70;48.18;100689.38;1592769;89;20196;-77
2022/07/07 09:49:43;;;;;;;;;;;;;;;20.73;47.74;100683.49;1601140;88;20171;-77
2022/07/07 09:52:16;;;;;;;;;;;;;;;20.66;47.20;100691.72;1594191;88;21087;-77
2022/07/07 09:54:48;;;;;;;;;;;;;;;20.68;47.01;100686.91;1586149;89;20319;-77
2022/07/07 09:57:14;;;;;;;;;;;;;;;20.78;46.80;100681.77;1587121;88;20180;-77
2022/07/07 09:59:41;;;;;;;;;;;;;;;20.99;46.68;100687.20;1620795;88;20228;-77
2022/07/07 10:02:25;;;;;;;;;;;;;;;21.11;46.28;100690.80;1609429;88;20169;-77
2022/07/07 10:04:52;;;;;;;;;;;;;;;21.12;45.78;100688.39;1610065;89;22268;-77
2022/07/07 10:07:21;;;;;;;;;;;;;;;21.02;45.52;100684.03;1607382;89;20185;-77
2022/07/07 10:09:52;;;;;;;;;;;;;;;21.13;45.44;100688.70;1610229;89;20473;-77
2022/07/07 10:12:20;;;;;;;;;;;;;;;21.14;45.23;100683.58;1612774;87;20557;-77
2022/07/07 10:14:46;;;;;;;;;;;;;;;21.18;44.94;100686.09;1609193;89;20212;-78
2022/07/07 10:17:14;;;;;;;;;;;;;;;21.07;44.70;100688.77;1610771;89;21142;-77
2022/07/07 10:19:40;;;;;;;;;;;;;;;20.88;44.48;100687.98;1608079;88;20166;-77
2022/07/07 10:22:07;;;;;;;;;;;;;;;20.80;44.42;100691.01;1606987;88;20212;-77
2022/07/07 10:24:33;;;;;;;;;;;;;;;20.73;44.33;100681.61;1611113;88;20192;-77
2022/07/07 10:27:00;;;;;;;;;;;;;;;20.92;44.34;100683.77;1610025;88;20190;-77
2022/07/07 10:29:44;;;;;;;;;;;;;;;21.30;44.18;100681.53;1609942;89;21091;-77
2022/07/07 10:32:16;;;;;;;;;;;;;;;21.50;43.94;100680.40;1604327;88;20492;-78
2022/07/07 10:34:50;;;;;;;;;;;;;;;21.81;43.83;100675.98;1603480;89;20171;-77
2022/07/07 10:37:16;;;;;;;;;;;;;;;22.02;43.46;100693.06;1613905;88;20473;-77
2022/07/07 10:39:45;;;;;;;;;;;;;;;22.23;43.10;100692.45;1639907;87;20200;-77
2022/07/07 10:42:23;;;;;;;;;;;;;;;22.19;42.53;100679.05;1645141;86;21901;-77
2022/07/07 10:44:50;;;;;;;;;;;;;;;22.39;42.47;100691.69;1625444;86;20162;-77
2022/07/07 10:47:20;;;;;;;;;;;;;;;22.67;42.26;100677.86;1630461;87;20225;-78
2022/07/07 10:49:51;;;;;;;;;;;;;;;22.88;42.15;100675.83;1616647;87;20201;-77
2022/07/07 10:52:19;;;;;;;;;;;;;;;23.01;41.93;100678.23;1597895;88;20435;-76
2022/07/07 10:54:55;;;;;;;;;;;;;;;22.91;41.81;100680.77;1604778;87;21451;-77
2022/07/07 10:57:25;;;;;;;;;;;;;;;22.84;41.81;100675.48;1604831;87;20245;-77
2022/07/07 11:00:03;;;;;;;;;;;;;;;22.71;41.85;100677.67;1616870;88;20211;-77
2022/07/07 11:02:32;;;;;;;;;;;;;;;22.53;41.93;100679.17;1620673;88;20173;-76
2022/07/07 11:04:59;;;;;;;;;;;;;;;22.44;42.01;100682.00;1615769;87;20185;-77
2022/07/07 11:07:26;;;;;;;;;;;;;;;22.14;42.12;100672.13;1601590;88;21173;-77
2022/07/07 11:10:01;;;;;;;;;;;;;;;21.96;42.39;100677.70;1603744;88;20199;-77
2022/07/07 11:12:43;;;;;;;;;;;;;;;21.73;42.53;100679.05;1603756;88;20230;-77
2022/07/07 11:15:22;;;;;;;;;;;;;;;21.53;42.89;100681.28;1609712;88;20178;-77
2022/07/07 11:17:57;;;;;;;;;;;;;;;21.18;43.33;100675.24;1606342;88;20489;-77
2022/07/07 11:20:24;;;;;;;;;;;;;;;20.92;43.70;100672.91;1613619;88;21217;-77
2022/07/07 11:22:52;;;;;;;;;;;;;;;20.69;44.09;100675.55;1617848;87;20172;-76
2022/07/07 11:25:18;;;;;;;;;;;;;;;20.55;44.49;100672.71;1615164;87;20205;-77
2022/07/07 11:27:45;;;;;;;;;;;;;;;20.37;45.02;100674.36;1615549;87;20200;-76
2022/07/07 11:30:11;;;;;;;;;;;;;;;20.30;45.37;100677.67;1619903;87;20199;-78
2022/07/07 11:32:38;;;;;;;;;;;;;;;20.28;45.64;100673.55;1625362;88;21265;-77
2022/07/07 11:35:06;;;;;;;;;;;;;;;20.33;45.88;100677.25;1624515;87;20155;-77
2022/07/07 11:37:33;;;;;;;;;;;;;;;20.45;46.18;100674.59;1608561;87;20177;-77
2022/07/07 11:39:59;;;;;;;;;;;;;;;20.59;46.36;100680.66;1637537;85;20510;-78
2022/07/07 11:42:26;;;;;;;;;;;;;;;20.55;46.49;100682.20;1628723;86;20565;-77
2022/07/07 11:44:51;;;;;;;;;;;;;;;20.61;46.74;100684.81;1622116;86;21171;-77
2022/07/07 11:47:17;;;;;;;;;;;;;;;20.80;46.78;100684.23;1612622;86;21078;-77
2022/07/07 11:49:43;;;;;;;;;;;;;;;20.87;46.93;100674.13;1613589;86;20258;-77
2022/07/07 11:52:14;;;;;;;;;;;;;;;20.92;46.96;100668.32;1634308;87;20208;-77
2022/07/07 11:54:45;;;;;;;;;;;;;;;21.08;47.10;100669.53;1625737;87;20196;-77
2022/07/07 11:57:11;;;;;;;;;;;;;;;21.15;47.09;100668.94;1632896;87;21034;-77
2022/07/07 11:59:37;;;;;;;;;;;;;;;21.23;47.07;100672.67;1626360;87;20190;-77
2022/07/07 12:02:19;;;;;;;;;;;;;;;21.31;47.02;100670.16;1602224;89;20193;-77
2022/07/07 12:04:45;;;;;;;;;;;;;;;21.35;47.07;100676.25;1628019;85;20182;-77
2022/07/07 12:07:11;;;;;;;;;;;;;;;21.26;46.92;100668.13;1641673;87;20166;-77
2022/07/07 12:09:36;;;;;;;;;;;;;;;21.21;46.94;100662.59;1630451;85;20695;-78
2022/07/07 12:12:03;;;;;;;;;;;;;;;21.31;46.97;100668.80;1630335;86;20210;-78
2022/07/07 12:14:29;;;;;;;;;;;;;;;21.33;46.95;100663.42;1636344;87;20158;-78
2022/07/07 12:16:56;;;;;;;;;;;;;;;21.36;46.99;100665.67;1635797;87;20439;-78
2022/07/07 12:19:22;;;;;;;;;;;;;;;21.55;47.17;100662.86;1637482;86;20489;-78
2022/07/07 12:21:49;;;;;;;;;;;;;;;21.64;47.15;100660.91;1627813;86;21081;-78
2022/07/07 12:24:16;;;;;;;;;;;;;;;21.68;47.12;100659.38;1631400;85;20179;-78
2022/07/07 12:26:44;;;;;;;;;;;;;;;21.69;47.09;100665.64;1633696;86;20164;-77
2022/07/07 12:29:10;;;;;;;;;;;;;;;21.75;47.09;100666.05;1629531;87;20154;-78
2022/07/07 12:31:37;;;;;;;;;;;;;;;21.60;47.02;100664.35;1637382;87;20113;-78
2022/07/07 12:34:11;;;;;;;;;;;;;;;21.46;47.06;100667.83;1632534;87;21145;-78
2022/07/07 12:36:38;;;;;;;;;;;;;;;21.51;47.13;100663.03;1637540;87;20182;-78